createdAt,value
2024-01-08T00:00:39.000Z,0.9
2024-01-08T00:01:41.000Z,0.9
2024-01-08T00:02:40.000Z,0.9
2024-01-08T00:03:40.000Z,0.9
2024-01-08T00:04:42.000Z,0.9
2024-01-08T00:05:41.000Z,0.9
2024-01-08T00:06:40.000Z,0.9
2024-01-08T00:07:39.000Z,0.9
2024-01-08T00:08:39.000Z,0.9
2024-01-08T00:09:39.000Z,0.9
2024-01-08T00:10:42.000Z,0.9
2024-01-08T00:11:40.000Z,0.9
2024-01-08T00:12:39.000Z,0.9
2024-01-08T00:13:40.000Z,0.9
2024-01-08T00:14:44.000Z,0.9
2024-01-08T00:15:39.000Z,0.8
2024-01-08T00:16:40.000Z,0.9
2024-01-08T00:17:45.000Z,0.8
2024-01-08T00:18:40.000Z,0.8
2024-01-08T00:19:39.000Z,0.8
2024-01-08T00:20:40.000Z,0.8
2024-01-08T00:21:40.000Z,0.8
2024-01-08T00:22:40.000Z,0.8
2024-01-08T00:23:40.000Z,0.8
2024-01-08T00:24:39.000Z,0.8
2024-01-08T00:25:39.000Z,0.8
2024-01-08T00:26:39.000Z,0.8
2024-01-08T00:27:39.000Z,0.8
2024-01-08T00:28:39.000Z,0.8
2024-01-08T00:29:39.000Z,0.8
2024-01-08T00:30:40.000Z,0.7
2024-01-08T00:31:39.000Z,0.7
2024-01-08T00:32:40.000Z,0.7
2024-01-08T00:33:42.000Z,0.7
2024-01-08T00:34:41.000Z,0.7
2024-01-08T00:35:40.000Z,0.7
2024-01-08T00:36:42.000Z,0.7
2024-01-08T00:37:41.000Z,0.7
2024-01-08T00:38:39.000Z,0.7
2024-01-08T00:39:40.000Z,0.7
2024-01-08T00:40:45.000Z,0.7
2024-01-08T00:41:40.000Z,0.7
2024-01-08T00:42:39.000Z,0.7
2024-01-08T00:43:39.000Z,0.7
2024-01-08T00:44:40.000Z,0.7
2024-01-08T00:45:40.000Z,0.6
2024-01-08T00:46:39.000Z,0.7
2024-01-08T00:47:40.000Z,0.6
2024-01-08T00:48:39.000Z,0.6
2024-01-08T00:49:39.000Z,0.6
2024-01-08T00:50:39.000Z,0.6
2024-01-08T00:51:40.000Z,0.6
2024-01-08T00:52:40.000Z,0.6
2024-01-08T00:53:39.000Z,0.6
2024-01-08T00:54:39.000Z,0.6
2024-01-08T00:55:39.000Z,0.6
2024-01-08T00:56:39.000Z,0.5
2024-01-08T00:57:40.000Z,0.5
2024-01-08T00:58:43.000Z,0.5
2024-01-08T00:59:40.000Z,0.5
2024-01-08T01:00:39.000Z,0.6
2024-01-08T01:01:40.000Z,0.5
2024-01-08T01:02:41.000Z,0.5
2024-01-08T01:03:40.000Z,0.5
2024-01-08T01:04:39.000Z,0.5
2024-01-08T01:05:40.000Z,0.5
2024-01-08T01:06:40.000Z,0.5
2024-01-08T01:07:39.000Z,0.5
2024-01-08T01:08:39.000Z,0.5
2024-01-08T01:09:39.000Z,0.4
2024-01-08T01:10:40.000Z,0.4
2024-01-08T01:11:39.000Z,0.4
2024-01-08T01:12:40.000Z,0.4
2024-01-08T01:13:39.000Z,0.4
2024-01-08T01:14:40.000Z,0.4
2024-01-08T01:15:39.000Z,0.4
2024-01-08T01:16:39.000Z,0.4
2024-01-08T01:17:40.000Z,0.4
2024-01-08T01:18:39.000Z,0.4
2024-01-08T01:19:42.000Z,0.4
2024-01-08T01:20:40.000Z,0.3
2024-01-08T01:21:40.000Z,0.3
2024-01-08T01:22:39.000Z,0.4
2024-01-08T01:23:39.000Z,0.3
2024-01-08T01:24:39.000Z,0.3
2024-01-08T01:25:39.000Z,0.3
2024-01-08T01:26:40.000Z,0.3
2024-01-08T01:27:39.000Z,0.3
2024-01-08T01:28:40.000Z,0.3
2024-01-08T01:29:39.000Z,0.3
2024-01-08T01:30:39.000Z,0.3
2024-01-08T01:31:39.000Z,0.2
2024-01-08T01:32:39.000Z,0.3
2024-01-08T01:33:40.000Z,0.2
2024-01-08T01:34:40.000Z,0.2
2024-01-08T01:35:42.000Z,0.2
2024-01-08T01:36:42.000Z,0.2
2024-01-08T01:37:43.000Z,0.2
2024-01-08T01:38:39.000Z,0.2
2024-01-08T01:39:39.000Z,0.2
2024-01-08T01:40:42.000Z,0.2
2024-01-08T01:41:45.000Z,0.2
2024-01-08T01:42:39.000Z,0.1
2024-01-08T01:43:40.000Z,0.1
2024-01-08T01:44:40.000Z,0.1
2024-01-08T01:45:40.000Z,0.1
2024-01-08T01:46:45.000Z,0.1
2024-01-08T01:47:39.000Z,0.1
2024-01-08T01:48:40.000Z,0.1
2024-01-08T01:49:41.000Z,0.1
2024-01-08T01:50:40.000Z,0.1
2024-01-08T01:51:42.000Z,0.1
2024-01-08T01:52:44.000Z,0.1
2024-01-08T01:53:40.000Z,0.1
2024-01-08T01:54:40.000Z,0
2024-01-08T01:55:41.000Z,0
2024-01-08T01:56:44.000Z,0
2024-01-08T01:57:43.000Z,0
2024-01-08T01:58:41.000Z,0
2024-01-08T01:59:40.000Z,0
2024-01-08T02:00:43.000Z,0
2024-01-08T02:01:40.000Z,0
2024-01-08T02:02:41.000Z,-0.1
2024-01-08T02:03:41.000Z,0
2024-01-08T02:04:43.000Z,0
2024-01-08T02:05:40.000Z,0
2024-01-08T02:06:42.000Z,-0.1
2024-01-08T02:07:43.000Z,0
2024-01-08T02:08:41.000Z,-0.1
2024-01-08T02:09:40.000Z,-0.1
2024-01-08T02:10:42.000Z,-0.1
2024-01-08T02:11:40.000Z,-0.1
2024-01-08T02:12:40.000Z,-0.1
2024-01-08T02:13:39.000Z,-0.1
2024-01-08T02:14:39.000Z,-0.1
2024-01-08T02:15:40.000Z,-0.1
2024-01-08T02:16:41.000Z,-0.1
2024-01-08T02:17:39.000Z,-0.2
2024-01-08T02:18:39.000Z,-0.2
2024-01-08T02:19:40.000Z,-0.2
2024-01-08T02:20:40.000Z,-0.2
2024-01-08T02:21:39.000Z,-0.2
2024-01-08T02:22:41.000Z,-0.2
2024-01-08T02:23:40.000Z,-0.2
2024-01-08T02:24:40.000Z,-0.2
2024-01-08T02:25:40.000Z,-0.2
2024-01-08T02:26:40.000Z,-0.3
2024-01-08T02:27:39.000Z,-0.2
2024-01-08T02:28:39.000Z,-0.2
2024-01-08T02:29:39.000Z,-0.3
2024-01-08T02:30:39.000Z,-0.3
2024-01-08T02:31:47.000Z,-0.3
2024-01-08T02:32:39.000Z,-0.3
2024-01-08T02:33:39.000Z,-0.3
2024-01-08T02:34:40.000Z,-0.3
2024-01-08T02:35:40.000Z,-0.3
2024-01-08T02:36:40.000Z,-0.3
2024-01-08T02:37:40.000Z,-0.3
2024-01-08T02:38:40.000Z,-0.4
2024-01-08T02:39:40.000Z,-0.4
2024-01-08T02:40:42.000Z,-0.4
2024-01-08T02:41:39.000Z,-0.4
2024-01-08T02:42:40.000Z,-0.4
2024-01-08T02:43:39.000Z,-0.4
2024-01-08T02:44:40.000Z,-0.4
2024-01-08T02:45:40.000Z,-0.4
2024-01-08T02:46:39.000Z,-0.4
2024-01-08T02:47:41.000Z,-0.4
2024-01-08T02:48:40.000Z,-0.5
2024-01-08T02:49:40.000Z,-0.4
2024-01-08T02:50:40.000Z,-0.5
2024-01-08T02:51:39.000Z,-0.5
2024-01-08T02:52:40.000Z,-0.5
2024-01-08T02:53:39.000Z,-0.5
2024-01-08T02:54:40.000Z,-0.5
2024-01-08T02:55:40.000Z,-0.5
2024-01-08T02:56:40.000Z,-0.5
2024-01-08T02:57:40.000Z,-0.5
2024-01-08T02:58:48.000Z,-0.5
2024-01-08T02:59:39.000Z,-0.5
2024-01-08T03:00:40.000Z,-0.6
2024-01-08T03:01:40.000Z,-0.6
2024-01-08T03:02:42.000Z,-0.5
2024-01-08T03:03:39.000Z,-0.6
2024-01-08T03:04:39.000Z,-0.6
2024-01-08T03:05:40.000Z,-0.6
2024-01-08T03:06:40.000Z,-0.6
2024-01-08T03:07:40.000Z,-0.6
2024-01-08T03:08:42.000Z,-0.6
2024-01-08T03:09:40.000Z,-0.6
2024-01-08T03:10:39.000Z,-0.6
2024-01-08T03:11:39.000Z,-0.7
2024-01-08T03:12:39.000Z,-0.7
2024-01-08T03:13:39.000Z,-0.7
2024-01-08T03:14:43.000Z,-0.7
2024-01-08T03:15:40.000Z,-0.7
2024-01-08T03:16:42.000Z,-0.7
2024-01-08T03:17:39.000Z,-0.7
2024-01-08T03:18:42.000Z,-0.7
2024-01-08T03:19:40.000Z,-0.7
2024-01-08T03:20:40.000Z,-0.7
2024-01-08T03:21:40.000Z,-0.7
2024-01-08T03:22:40.000Z,-0.8
2024-01-08T03:23:40.000Z,-0.8
2024-01-08T03:24:40.000Z,-0.8
2024-01-08T03:25:50.000Z,-0.8
2024-01-08T03:26:39.000Z,-0.8
2024-01-08T03:27:39.000Z,-0.8
2024-01-08T03:28:40.000Z,-0.8
2024-01-08T03:29:45.000Z,-0.8
2024-01-08T03:30:39.000Z,-0.9
2024-01-08T03:31:41.000Z,-0.9
2024-01-08T03:32:40.000Z,-0.9
2024-01-08T03:33:40.000Z,-0.9
2024-01-08T03:34:42.000Z,-0.9
2024-01-08T03:35:40.000Z,-0.9
2024-01-08T03:36:45.000Z,-0.9
2024-01-08T03:37:39.000Z,-0.9
2024-01-08T03:38:40.000Z,-0.9
2024-01-08T03:39:39.000Z,-0.9
2024-01-08T03:40:40.000Z,-0.9
2024-01-08T03:41:41.000Z,-0.9
2024-01-08T03:42:39.000Z,-0.9
2024-01-08T03:43:40.000Z,-1
2024-01-08T03:44:39.000Z,-1
2024-01-08T03:45:40.000Z,-1
2024-01-08T03:46:39.000Z,-1
2024-01-08T03:47:41.000Z,-1
2024-01-08T03:48:40.000Z,-1
2024-01-08T03:49:40.000Z,-1
2024-01-08T03:50:40.000Z,-1.1
2024-01-08T03:51:43.000Z,-1
2024-01-08T03:52:40.000Z,-1
2024-01-08T03:53:40.000Z,-1.1
2024-01-08T03:54:40.000Z,-1.1
2024-01-08T03:55:40.000Z,-1.1
2024-01-08T03:56:45.000Z,-1.1
2024-01-08T03:57:39.000Z,-1.1
2024-01-08T03:58:42.000Z,-1.1
2024-01-08T03:59:41.000Z,-1.1
2024-01-08T04:00:39.000Z,-1.1
2024-01-08T04:01:43.000Z,-1.1
2024-01-08T04:02:40.000Z,-1.1
2024-01-08T04:03:40.000Z,-1.1
2024-01-08T04:04:41.000Z,-1.2
2024-01-08T04:05:40.000Z,-1.2
2024-01-08T04:06:39.000Z,-1.2
2024-01-08T04:07:40.000Z,-1.2
2024-01-08T04:08:39.000Z,-1.2
2024-01-08T04:09:40.000Z,-1.2
2024-01-08T04:10:45.000Z,-1.2
2024-01-08T04:11:44.000Z,-1.2
2024-01-08T04:12:42.000Z,-1.2
2024-01-08T04:13:40.000Z,-1.3
2024-01-08T04:14:40.000Z,-1.2
2024-01-08T04:15:39.000Z,-1.2
2024-01-08T04:16:40.000Z,-1.2
2024-01-08T04:17:42.000Z,-1.2
2024-01-08T04:18:40.000Z,-1.2
2024-01-08T04:19:39.000Z,-1.3
2024-01-08T04:20:40.000Z,-1.3
2024-01-08T04:21:41.000Z,-1.3
2024-01-08T04:22:48.000Z,-1.3
2024-01-08T04:23:40.000Z,-1.3
2024-01-08T04:24:39.000Z,-1.3
2024-01-08T04:25:39.000Z,-1.3
2024-01-08T04:26:39.000Z,-1.3
2024-01-08T04:27:40.000Z,-1.3
2024-01-08T04:28:39.000Z,-1.3
2024-01-08T04:29:40.000Z,-1.3
2024-01-08T04:30:39.000Z,-1.4
2024-01-08T04:31:39.000Z,-1.4
2024-01-08T04:32:40.000Z,-1.4
2024-01-08T04:33:39.000Z,-1.3
2024-01-08T04:34:40.000Z,-1.4
2024-01-08T04:35:40.000Z,-1.4
2024-01-08T04:36:40.000Z,-1.4
2024-01-08T04:37:40.000Z,-1.4
2024-01-08T04:38:40.000Z,-1.4
2024-01-08T04:39:39.000Z,-1.4
2024-01-08T04:40:40.000Z,-1.4
2024-01-08T04:41:40.000Z,-1.4
2024-01-08T04:42:39.000Z,-1.4
2024-01-08T04:43:39.000Z,-1.4
2024-01-08T04:44:41.000Z,-1.5
2024-01-08T04:45:40.000Z,-1.5
2024-01-08T04:46:42.000Z,-1.5
2024-01-08T04:47:40.000Z,-1.5
2024-01-08T04:48:40.000Z,-1.5
2024-01-08T04:49:40.000Z,-1.5
2024-01-08T04:50:40.000Z,-1.5
2024-01-08T04:51:40.000Z,-1.5
2024-01-08T04:52:40.000Z,-1.5
2024-01-08T04:53:40.000Z,-1.5
2024-01-08T04:54:42.000Z,-1.5
2024-01-08T04:55:39.000Z,-1.5
2024-01-08T04:56:40.000Z,-1.5
2024-01-08T04:57:42.000Z,-1.6
2024-01-08T04:58:42.000Z,-1.5
2024-01-08T04:59:40.000Z,-1.5
2024-01-08T05:00:40.000Z,-1.6
2024-01-08T05:01:40.000Z,-1.6
2024-01-08T05:02:39.000Z,-1.6
2024-01-08T05:03:41.000Z,-1.6
2024-01-08T05:04:41.000Z,-1.6
2024-01-08T05:05:42.000Z,-1.6
2024-01-08T05:06:40.000Z,-1.6
2024-01-08T05:07:39.000Z,-1.6
2024-01-08T05:08:40.000Z,-1.6
2024-01-08T05:09:39.000Z,-1.6
2024-01-08T05:10:40.000Z,-1.6
2024-01-08T05:11:45.000Z,-1.6
2024-01-08T05:12:40.000Z,-1.7
2024-01-08T05:13:40.000Z,-1.7
2024-01-08T05:14:39.000Z,-1.7
2024-01-08T05:15:39.000Z,-1.7
2024-01-08T05:16:40.000Z,-1.7
2024-01-08T05:17:39.000Z,-1.7
2024-01-08T05:18:40.000Z,-1.7
2024-01-08T05:19:39.000Z,-1.7
2024-01-08T05:20:42.000Z,-1.7
2024-01-08T05:21:42.000Z,-1.7
2024-01-08T05:22:39.000Z,-1.7
2024-01-08T05:23:39.000Z,-1.8
2024-01-08T05:24:46.000Z,-1.7
2024-01-08T05:25:47.000Z,-1.8
2024-01-08T05:26:42.000Z,-1.8
2024-01-08T05:27:39.000Z,-1.7
2024-01-08T05:28:40.000Z,-1.8
2024-01-08T05:29:40.000Z,-1.8
2024-01-08T05:30:39.000Z,-1.8
2024-01-08T05:31:41.000Z,-1.8
2024-01-08T05:32:39.000Z,-1.8
2024-01-08T05:33:42.000Z,-1.8
2024-01-08T05:34:39.000Z,-1.8
2024-01-08T05:35:40.000Z,-1.9
2024-01-08T05:36:41.000Z,-1.8
2024-01-08T05:37:39.000Z,-1.9
2024-01-08T05:38:39.000Z,-1.9
2024-01-08T05:39:42.000Z,-1.9
2024-01-08T05:40:40.000Z,-1.9
2024-01-08T05:41:40.000Z,-1.9
2024-01-08T05:42:39.000Z,-1.9
2024-01-08T05:43:40.000Z,-1.9
2024-01-08T05:44:42.000Z,-1.9
2024-01-08T05:45:40.000Z,-1.9
2024-01-08T05:46:42.000Z,-1.9
2024-01-08T05:47:39.000Z,-1.9
2024-01-08T05:48:41.000Z,-1.9
2024-01-08T05:49:40.000Z,-1.9
2024-01-08T05:50:39.000Z,-1.9
2024-01-08T05:51:40.000Z,-1.9
2024-01-08T05:52:39.000Z,-1.9
2024-01-08T05:53:40.000Z,-1.9
2024-01-08T05:54:40.000Z,-1.9
2024-01-08T05:55:40.000Z,-1.9
2024-01-08T05:56:40.000Z,-2
2024-01-08T05:57:39.000Z,-2
2024-01-08T05:58:40.000Z,-2
2024-01-08T05:59:40.000Z,-2
2024-01-08T06:00:40.000Z,-2
2024-01-08T06:01:42.000Z,-2
2024-01-08T06:02:40.000Z,-2
2024-01-08T06:03:39.000Z,-2
2024-01-08T06:04:40.000Z,-2
2024-01-08T06:05:39.000Z,-2
2024-01-08T06:06:40.000Z,-2
2024-01-08T06:07:39.000Z,-2
2024-01-08T06:08:42.000Z,-2
2024-01-08T06:09:40.000Z,-2
2024-01-08T06:10:39.000Z,-2
2024-01-08T06:11:39.000Z,-2
2024-01-08T06:12:39.000Z,-2
2024-01-08T06:13:42.000Z,-2
2024-01-08T06:14:40.000Z,-2
2024-01-08T06:15:39.000Z,-2
2024-01-08T06:16:42.000Z,-2
2024-01-08T06:18:39.000Z,-2.1
2024-01-08T06:19:40.000Z,-2.1
2024-01-08T06:20:39.000Z,-2.1
2024-01-08T06:21:39.000Z,-2
2024-01-08T06:22:39.000Z,-2
2024-01-08T06:23:40.000Z,-2.1
2024-01-08T06:24:40.000Z,-2.1
2024-01-08T06:25:40.000Z,-2.1
2024-01-08T06:26:39.000Z,-2.1
2024-01-08T06:27:39.000Z,-2.1
2024-01-08T06:28:39.000Z,-2.1
2024-01-08T06:29:40.000Z,-2.1
2024-01-08T06:30:50.000Z,-2.1
2024-01-08T06:31:45.000Z,-2.1
2024-01-08T06:32:40.000Z,-2.1
2024-01-08T06:33:40.000Z,-2.1
2024-01-08T06:34:39.000Z,-2.1
2024-01-08T06:35:42.000Z,-2.2
2024-01-08T06:36:40.000Z,-2.2
2024-01-08T06:37:41.000Z,-2.2
2024-01-08T06:38:39.000Z,-2.2
2024-01-08T06:39:40.000Z,-2.2
2024-01-08T06:40:39.000Z,-2.2
2024-01-08T06:41:39.000Z,-2.2
2024-01-08T06:42:39.000Z,-2.2
2024-01-08T06:43:40.000Z,-2.2
2024-01-08T06:44:40.000Z,-2.2
2024-01-08T06:45:39.000Z,-2.2
2024-01-08T06:46:40.000Z,-2.2
2024-01-08T06:47:39.000Z,-2.3
2024-01-08T06:48:40.000Z,-2.3
2024-01-08T06:49:40.000Z,-2.3
2024-01-08T06:50:41.000Z,-2.3
2024-01-08T06:51:43.000Z,-2.3
2024-01-08T06:52:40.000Z,-2.3
2024-01-08T06:53:40.000Z,-2.3
2024-01-08T06:54:40.000Z,-2.3
2024-01-08T06:55:40.000Z,-2.3
2024-01-08T06:56:39.000Z,-2.3
2024-01-08T06:57:51.000Z,-2.3
2024-01-08T06:58:40.000Z,-2.3
2024-01-08T06:59:39.000Z,-2.3
2024-01-08T07:00:42.000Z,-2.3
2024-01-08T07:01:40.000Z,-2.3
2024-01-08T07:02:39.000Z,-2.3
2024-01-08T07:03:39.000Z,-2.3
2024-01-08T07:04:40.000Z,-2.3
2024-01-08T07:05:40.000Z,-2.4
2024-01-08T07:06:40.000Z,-2.3
2024-01-08T07:07:41.000Z,-2.4
2024-01-08T07:08:40.000Z,-2.4
2024-01-08T07:09:39.000Z,-2.4
2024-01-08T07:10:39.000Z,-2.4
2024-01-08T07:11:39.000Z,-2.4
2024-01-08T07:12:40.000Z,-2.4
2024-01-08T07:13:39.000Z,-2.4
2024-01-08T07:14:46.000Z,-2.4
2024-01-08T07:15:41.000Z,-2.4
2024-01-08T07:16:40.000Z,-2.4
2024-01-08T07:17:40.000Z,-2.4
2024-01-08T07:18:47.000Z,-2.4
2024-01-08T07:19:40.000Z,-2.5
2024-01-08T07:20:42.000Z,-2.4
2024-01-08T07:21:42.000Z,-2.4
2024-01-08T07:22:39.000Z,-2.5
2024-01-08T07:23:39.000Z,-2.5
2024-01-08T07:24:40.000Z,-2.4
2024-01-08T07:25:41.000Z,-2.5
2024-01-08T07:26:45.000Z,-2.5
2024-01-08T07:27:39.000Z,-2.5
2024-01-08T07:28:41.000Z,-2.5
2024-01-08T07:29:39.000Z,-2.5
2024-01-08T07:30:40.000Z,-2.5
2024-01-08T07:31:40.000Z,-2.5
2024-01-08T07:32:40.000Z,-2.5
2024-01-08T07:33:40.000Z,-2.5
2024-01-08T07:34:40.000Z,-2.5
2024-01-08T07:35:40.000Z,-2.5
2024-01-08T07:36:39.000Z,-2.5
2024-01-08T07:37:40.000Z,-2.5
2024-01-08T07:38:39.000Z,-2.5
2024-01-08T07:39:39.000Z,-2.5
2024-01-08T07:40:40.000Z,-2.5
2024-01-08T07:41:40.000Z,-2.5
2024-01-08T07:42:39.000Z,-2.5
2024-01-08T07:43:39.000Z,-2.5
2024-01-08T07:44:39.000Z,-2.5
2024-01-08T07:45:40.000Z,-2.5
2024-01-08T07:46:39.000Z,-2.5
2024-01-08T07:47:40.000Z,-2.5
2024-01-08T07:48:39.000Z,-2.5
2024-01-08T07:49:40.000Z,-2.5
2024-01-08T07:50:40.000Z,-2.4
2024-01-08T07:51:41.000Z,-2.4
2024-01-08T07:52:40.000Z,-2.5
2024-01-08T07:53:39.000Z,-2.4
2024-01-08T07:54:39.000Z,-2.4
2024-01-08T07:55:40.000Z,-2.4
2024-01-08T07:56:39.000Z,-2.5
2024-01-08T07:57:42.000Z,-2.4
2024-01-08T07:58:45.000Z,-2.4
2024-01-08T07:59:39.000Z,-2.4
2024-01-08T08:00:40.000Z,-2.4
2024-01-08T08:01:40.000Z,-2.4
2024-01-08T08:02:40.000Z,-2.4
2024-01-08T08:03:42.000Z,-2.4
2024-01-08T08:04:40.000Z,-2.4
2024-01-08T08:05:41.000Z,-2.4
2024-01-08T08:06:39.000Z,-2.4
2024-01-08T08:07:40.000Z,-2.4
2024-01-08T08:08:39.000Z,-2.4
2024-01-08T08:09:39.000Z,-2.3
2024-01-08T08:10:39.000Z,-2.3
2024-01-08T08:11:41.000Z,-2.3
2024-01-08T08:12:40.000Z,-2.3
2024-01-08T08:13:39.000Z,-2.3
2024-01-08T08:14:39.000Z,-2.3
2024-01-08T08:15:40.000Z,-2.3
2024-01-08T08:16:40.000Z,-2.3
2024-01-08T08:17:41.000Z,-2.3
2024-01-08T08:18:40.000Z,-2.3
2024-01-08T08:19:42.000Z,-2.3
2024-01-08T08:20:40.000Z,-2.3
2024-01-08T08:21:40.000Z,-2.3
2024-01-08T08:22:39.000Z,-2.2
2024-01-08T08:23:39.000Z,-2.2
2024-01-08T08:24:42.000Z,-2.2
2024-01-08T08:25:41.000Z,-2.2
2024-01-08T08:26:42.000Z,-2.2
2024-01-08T08:27:39.000Z,-2.2
2024-01-08T08:28:40.000Z,-2.3
2024-01-08T08:29:41.000Z,-2.2
2024-01-08T08:30:39.000Z,-2.2
2024-01-08T08:31:45.000Z,-2.2
2024-01-08T08:32:41.000Z,-2.2
2024-01-08T08:33:41.000Z,-2.2
2024-01-08T08:34:40.000Z,-2.2
2024-01-08T08:35:40.000Z,-2.2
2024-01-08T08:36:40.000Z,-2.2
2024-01-08T08:37:40.000Z,-2.2
2024-01-08T08:38:39.000Z,-2.2
2024-01-08T08:39:40.000Z,-2.2
2024-01-08T08:40:40.000Z,-2.2
2024-01-08T08:41:39.000Z,-2.2
2024-01-08T08:42:40.000Z,-2.2
2024-01-08T08:43:43.000Z,-2.2
2024-01-08T08:44:39.000Z,-2.2
2024-01-08T08:45:40.000Z,-2.2
2024-01-08T08:46:40.000Z,-2.1
2024-01-08T08:47:42.000Z,-2.2
2024-01-08T08:48:39.000Z,-2.1
2024-01-08T08:49:39.000Z,-2.1
2024-01-08T08:50:39.000Z,-2.1
2024-01-08T08:51:40.000Z,-2.1
2024-01-08T08:52:40.000Z,-2.1
2024-01-08T08:53:39.000Z,-2.1
2024-01-08T08:54:40.000Z,-2.1
2024-01-08T08:55:40.000Z,-2.1
2024-01-08T08:56:42.000Z,-2.1
2024-01-08T08:57:40.000Z,-2.1
2024-01-08T08:58:39.000Z,-2.1
2024-01-08T08:59:40.000Z,-2.1
2024-01-08T09:00:40.000Z,-2.1
2024-01-08T09:01:40.000Z,-2.1
2024-01-08T09:02:40.000Z,-2.1
2024-01-08T09:03:40.000Z,-2.1
2024-01-08T09:04:40.000Z,-2.1
2024-01-08T09:05:39.000Z,-2.1
2024-01-08T09:06:40.000Z,-2.1
2024-01-08T09:07:43.000Z,-2
2024-01-08T09:08:39.000Z,-2
2024-01-08T09:09:40.000Z,-2.1
2024-01-08T09:10:39.000Z,-2
2024-01-08T09:11:40.000Z,-2
2024-01-08T09:12:39.000Z,-2
2024-01-08T09:13:40.000Z,-2
2024-01-08T09:14:40.000Z,-2
2024-01-08T09:15:42.000Z,-2
2024-01-08T09:16:40.000Z,-1.9
2024-01-08T09:17:40.000Z,-1.9
2024-01-08T09:18:41.000Z,-1.9
2024-01-08T09:19:39.000Z,-1.9
2024-01-08T09:20:40.000Z,-1.9
2024-01-08T09:21:45.000Z,-1.9
2024-01-08T09:22:40.000Z,-1.9
2024-01-08T09:23:41.000Z,-1.8
2024-01-08T09:24:40.000Z,-1.8
2024-01-08T09:25:40.000Z,-1.8
2024-01-08T09:26:41.000Z,-1.8
2024-01-08T09:27:40.000Z,-1.8
2024-01-08T09:28:39.000Z,-1.8
2024-01-08T09:29:48.000Z,-1.7
2024-01-08T09:30:39.000Z,-1.8
2024-01-08T09:31:40.000Z,-1.7
2024-01-08T09:32:39.000Z,-1.7
2024-01-08T09:33:39.000Z,-1.7
2024-01-08T09:34:45.000Z,-1.7
2024-01-08T09:35:45.000Z,-1.7
2024-01-08T09:36:40.000Z,-1.7
2024-01-08T09:37:40.000Z,-1.6
2024-01-08T09:38:40.000Z,-1.7
2024-01-08T09:39:41.000Z,-1.7
2024-01-08T09:40:42.000Z,-1.6
2024-01-08T09:41:46.000Z,-1.6
2024-01-08T09:42:40.000Z,-1.6
2024-01-08T09:43:45.000Z,-1.6
2024-01-08T09:44:46.000Z,-1.6
2024-01-08T09:45:59.000Z,-1.6
2024-01-08T09:46:45.000Z,-1.6
2024-01-08T09:47:42.000Z,-1.6
2024-01-08T09:48:41.000Z,-1.6
2024-01-08T09:49:42.000Z,-1.5
2024-01-08T09:50:40.000Z,-1.5
2024-01-08T09:51:42.000Z,-1.5
2024-01-08T09:52:42.000Z,-1.4
2024-01-08T09:53:39.000Z,-1.5
2024-01-08T09:54:41.000Z,-1.4
2024-01-08T09:55:45.000Z,-1.4
2024-01-08T09:56:40.000Z,-1.4
2024-01-08T09:57:40.000Z,-1.4
2024-01-08T09:58:40.000Z,-1.4
2024-01-08T09:59:40.000Z,-1.4
2024-01-08T10:00:41.000Z,-1.3
2024-01-08T10:01:42.000Z,-1.3
2024-01-08T10:02:41.000Z,-1.3
2024-01-08T10:03:43.000Z,-1.3
2024-01-08T10:04:40.000Z,-1.3
2024-01-08T10:05:43.000Z,-1.3
2024-01-08T10:06:39.000Z,-1.3
2024-01-08T10:07:40.000Z,-1.3
2024-01-08T10:08:40.000Z,-1.2
2024-01-08T10:09:40.000Z,-1.2
2024-01-08T10:10:39.000Z,-1.2
2024-01-08T10:11:41.000Z,-1.2
2024-01-08T10:12:49.000Z,-1.2
2024-01-08T10:13:41.000Z,-1.2
2024-01-08T10:14:40.000Z,-1.1
2024-01-08T10:15:46.000Z,-1.1
2024-01-08T10:16:41.000Z,-1.1
2024-01-08T10:17:40.000Z,-1.1
2024-01-08T10:18:40.000Z,-1.1
2024-01-08T10:19:42.000Z,-1.1
2024-01-08T10:20:42.000Z,-1
2024-01-08T10:21:40.000Z,-1
2024-01-08T10:22:40.000Z,-1
2024-01-08T10:23:47.000Z,-1
2024-01-08T10:24:42.000Z,-0.9
2024-01-08T10:25:50.000Z,-1
2024-01-08T10:26:40.000Z,-0.9
2024-01-08T10:27:44.000Z,-0.9
2024-01-08T10:28:40.000Z,-0.9
2024-01-08T10:29:41.000Z,-0.9
2024-01-08T10:30:40.000Z,-0.9
2024-01-08T10:31:40.000Z,-0.9
2024-01-08T10:32:41.000Z,-0.8
2024-01-08T10:33:39.000Z,-0.8
2024-01-08T10:34:41.000Z,-0.8
2024-01-08T10:35:41.000Z,-0.7
2024-01-08T10:36:42.000Z,-0.8
2024-01-08T10:37:43.000Z,-0.7
2024-01-08T10:38:40.000Z,-0.7
2024-01-08T10:39:40.000Z,-0.7
2024-01-08T10:40:40.000Z,-0.7
2024-01-08T10:41:39.000Z,-0.6
2024-01-08T10:42:41.000Z,-0.6
2024-01-08T10:43:40.000Z,-0.6
2024-01-08T10:44:40.000Z,-0.6
2024-01-08T10:45:39.000Z,-0.6
2024-01-08T10:46:52.000Z,-0.6
2024-01-08T10:47:50.000Z,-0.6
2024-01-08T10:48:43.000Z,-0.6
2024-01-08T10:49:52.000Z,-0.6
2024-01-08T10:50:41.000Z,-0.5
2024-01-08T10:51:46.000Z,-0.5
2024-01-08T10:52:51.000Z,-0.5
2024-01-08T10:53:45.000Z,-0.5
2024-01-08T10:54:50.000Z,-0.5
2024-01-08T10:55:42.000Z,-0.4
2024-01-08T10:56:40.000Z,-0.4
2024-01-08T10:57:50.000Z,-0.4
2024-01-08T10:58:55.000Z,-0.4
2024-01-08T10:59:43.000Z,-0.3
